Terminal Aerodrome Forecast
Issued by NWS

Home | Current Version | Previous Version | Text Only | Print | Product List | Glossary Off
Versions: 1 2 3 4 5 6 7 8 9 10 11 12 13 14 15 16 17 18 19 20 21 22

000
FTUS41 KGYX 280232 AAB
TAFRKD
TAF AMD
KRKD 280232Z 2803/2824 23009G20KT P6SM FEW100
     FM280400 22008KT 3SM BR BKN005
     FM280600 23007KT 1/4SM FG OVC001
     FM281400 22010KT 4SM HZ OVC005
     FM281800 23009G16KT 4SM HZ OVC050 PROB30 2820/2821 4SM -TSRA
      BKN050CB
      AMD LTD TO CLD VIS AND WIND=

USA.gov is the U.S. government's official web portal to all federal, state and local government web resources and services.